Time;durP1;ratioP1;P1;durP2;ratioP2;P2;SDS_P1;SDS_P2;PMS_P1;PMS_P2;Temp;Humidity;BMP_temperature;BMP_pressure;BME280_temperature;BME280_humidity;BME280_pressure;Samples;Min_cycle;Max_cycle;Signal;HPM_P1;HPM_P2
2021/06/29 06:35:49;;;;;;;8.53;3.55;;;;;;;21.34;57.57;98029.09;1862823;75;22741;-69
2021/06/29 06:38:22;;;;;;;5.65;3.20;;;;;;;21.35;57.29;98028.73;1840988;77;21585;-66
2021/06/29 06:40:52;;;;;;;6.25;2.80;;;;;;;21.43;56.53;98029.06;1816148;77;21142;-70
2021/06/29 06:43:21;;;;;;;7.25;3.12;;;;;;;21.55;55.77;98034.96;1858759;77;21513;-71
2021/06/29 06:45:51;;;;;;;5.40;3.00;;;;;;;21.65;55.40;98032.98;1808292;77;21014;-64
2021/06/29 06:48:18;;;;;;;3.70;2.75;;;;;;;21.72;55.70;98029.83;1821723;78;21004;-65
2021/06/29 06:50:45;;;;;;;7.35;2.83;;;;;;;21.87;54.96;98026.02;1817946;77;20904;-71
2021/06/29 06:53:17;;;;;;;5.80;2.58;;;;;;;21.99;54.45;98020.39;1829778;77;21121;-66
2021/06/29 06:55:44;;;;;;;7.60;2.83;;;;;;;22.10;54.46;98026.80;1794060;78;20963;-67
2021/06/29 06:58:12;;;;;;;5.28;2.87;;;;;;;22.20;54.73;98018.81;1787871;78;20934;-72
2021/06/29 07:00:39;;;;;;;6.80;2.90;;;;;;;22.31;54.28;98016.23;1763833;79;21048;-66
2021/06/29 07:03:06;;;;;;;4.25;2.80;;;;;;;22.44;54.21;98018.42;1806602;79;21039;-71
2021/06/29 07:05:33;;;;;;;6.75;3.25;;;;;;;22.56;53.76;98011.17;1773908;79;21130;-67
2021/06/29 07:08:05;;;;;;;7.85;2.65;;;;;;;22.67;53.87;98026.58;1771842;80;20944;-66
2021/06/29 07:10:34;;;;;;;5.45;2.67;;;;;;;22.78;53.52;98025.34;1786141;79;21084;-65
2021/06/29 07:13:01;;;;;;;6.15;3.10;;;;;;;22.86;53.06;98023.73;1786522;79;21468;-68
2021/06/29 07:15:30;;;;;;;3.80;2.75;;;;;;;22.95;52.67;98024.24;1790761;79;21060;-68
2021/06/29 07:18:02;;;;;;;3.05;2.67;;;;;;;23.02;51.50;98024.91;1788422;79;21680;-70
2021/06/29 07:20:33;;;;;;;5.65;3.02;;;;;;;;;;1780741;79;20955;-67
2021/06/29 07:23:02;;;;;;;4.40;2.83;;;;;;;23.11;51.21;98023.47;1778158;79;20965;-67
2021/06/29 07:25:31;;;;;;;4.35;2.60;;;;;;;23.14;50.94;98020.01;1778848;79;20973;-68
2021/06/29 07:27:58;;;;;;;3.47;2.70;;;;;;;23.19;51.10;98019.47;1782607;80;21031;-69
2021/06/29 07:30:25;;;;;;;9.13;3.58;;;;;;;23.26;50.80;98011.35;1768819;80;21108;-69
2021/06/29 07:32:53;;;;;;;5.45;2.92;;;;;;;23.36;50.73;98007.42;1785687;80;21512;-67
2021/06/29 07:35:21;;;;;;;4.87;2.75;;;;;;;23.48;50.54;98018.67;1777579;80;20938;-67
2021/06/29 07:37:48;;;;;;;8.88;2.62;;;;;;;23.56;50.39;98017.58;1824744;78;20916;-67
2021/06/29 07:40:16;;;;;;;5.53;2.85;;;;;;;23.65;49.29;98005.75;1829735;77;21408;-67
2021/06/29 07:42:43;;;;;;;3.50;2.37;;;;;;;23.74;49.58;98007.63;1823053;77;21865;-68
2021/06/29 07:45:12;;;;;;;3.67;2.60;;;;;;;23.85;48.45;98015.92;1822665;77;20919;-67
2021/06/29 07:47:39;;;;;;;4.60;2.50;;;;;;;23.93;47.55;98006.64;1797021;78;21514;-67
2021/06/29 07:50:10;;;;;;;5.97;2.50;;;;;;;23.95;48.13;98008.41;1769195;80;20957;-68
2021/06/29 07:52:37;;;;;;;8.25;2.80;;;;;;;23.93;48.20;98007.40;1749902;81;21014;-67
2021/06/29 07:55:05;;;;;;;3.85;2.42;;;;;;;23.86;48.14;98004.59;1728228;82;21554;-67
2021/06/29 07:57:38;;;;;;;4.97;2.47;;;;;;;23.85;48.72;98004.41;1758706;80;20937;-67
2021/06/29 08:00:09;;;;;;;5.37;2.58;;;;;;;23.95;49.53;98005.09;1752495;80;20892;-66
2021/06/29 08:02:43;;;;;;;3.05;2.33;;;;;;;24.16;47.90;98012.73;1759858;81;21430;-65
2021/06/29 08:05:17;;;;;;;2.95;2.50;;;;;;;24.31;46.61;98005.61;1767835;81;21034;-68
2021/06/29 08:07:49;;;;;;;3.30;2.20;;;;;;;24.36;45.88;97999.78;1815117;77;21125;-66
2021/06/29 08:10:41;;;;;;;7.08;2.10;;;;;;;24.30;45.53;98001.89;1784854;78;20987;-67
2021/06/29 08:13:21;;;;;;;4.85;2.17;;;;;;;24.21;45.99;98004.17;1738950;80;21548;-68
2021/06/29 08:15:49;;;;;;;3.35;2.30;;;;;;;24.19;46.39;98001.03;1766885;80;21036;-70
2021/06/29 08:18:23;;;;;;;3.83;2.20;;;;;;;24.30;47.08;98002.69;1767124;81;21062;-69
2021/06/29 08:20:58;;;;;;;2.60;2.10;;;;;;;24.47;46.48;97993.80;1738241;81;21873;-68
2021/06/29 08:23:27;;;;;;;4.70;2.10;;;;;;;24.69;46.18;97992.56;1832341;78;21319;-68
2021/06/29 08:25:57;;;;;;;2.35;1.70;;;;;;;24.81;45.12;97993.64;1827072;77;20951;-67
2021/06/29 08:28:40;;;;;;;4.80;2.15;;;;;;;24.83;45.63;97986.61;1814373;78;21478;-69
2021/06/29 08:31:14;;;;;;;4.72;1.92;;;;;;;24.80;44.17;97995.59;1823712;77;21051;-69
2021/06/29 08:33:46;;;;;;;5.72;2.10;;;;;;;24.68;43.68;97999.22;1823898;78;21523;-67
2021/06/29 08:36:23;;;;;;;4.10;2.15;;;;;;;24.59;44.10;97994.67;1813269;78;20983;-70
2021/06/29 08:38:56;;;;;;;2.98;1.72;;;;;;;24.64;43.48;97991.55;1746188;81;21074;-67
2021/06/29 08:41:32;;;;;;;5.03;2.10;;;;;;;24.77;42.92;97988.16;1767407;81;20921;-67
2021/06/29 08:44:11;;;;;;;7.45;2.37;;;;;;;24.93;43.58;97979.62;1806853;79;20986;-68
2021/06/29 08:46:46;;;;;;;4.78;2.08;;;;;;;24.98;43.41;97980.63;1746044;80;22462;-68
2021/06/29 08:49:13;;;;;;;3.12;1.95;;;;;;;24.88;42.68;97981.34;1849611;77;20865;-68
2021/06/29 08:51:40;;;;;;;2.35;1.90;;;;;;;24.75;42.96;97984.20;1849520;77;20899;-69
2021/06/29 08:54:09;;;;;;;3.05;1.62;;;;;;;24.74;43.92;97988.09;1849585;77;20951;-69
2021/06/29 08:56:38;;;;;;;3.40;1.67;;;;;;;24.88;42.68;97985.45;1849824;77;21002;-68
2021/06/29 08:59:05;;;;;;;2.20;1.95;;;;;;;25.12;41.78;97984.80;1849632;77;21102;-66
2021/06/29 09:01:35;;;;;;;3.42;1.60;;;;;;;25.36;42.45;97978.63;1849063;77;20825;-68
2021/06/29 09:04:04;;;;;;;1.90;1.80;;;;;;;25.53;39.96;97977.89;1846606;77;21399;-68
2021/06/29 09:06:35;;;;;;;3.27;1.77;;;;;;;25.67;40.35;97979.91;1846269;77;20923;-67
2021/06/29 09:09:24;;;;;;;4.25;2.22;;;;;;;25.86;40.54;97978.75;1853456;77;21536;-67
2021/06/29 09:11:51;;;;;;;3.67;1.80;;;;;;;26.01;39.35;97974.82;1845269;77;21107;-66
2021/06/29 09:14:20;;;;;;;5.72;1.72;;;;;;;26.03;40.05;97966.98;1827533;77;21094;-66
2021/06/29 09:16:47;;;;;;;1.95;1.70;;;;;;;26.14;41.00;97969.97;1790606;78;21434;-70
2021/06/29 09:19:34;;;;;;;2.27;1.67;;;;;;;26.32;39.24;97971.31;1806413;78;20885;-69
2021/06/29 09:22:28;;;;;;;2.75;1.60;;;;;;;26.35;39.44;97973.28;1813743;78;20995;-69
2021/06/29 09:24:57;;;;;;;3.90;1.55;;;;;;;26.39;38.49;97972.09;1812416;79;20936;-69
2021/06/29 09:27:45;;;;;;;3.95;1.85;;;;;;;26.46;39.49;97971.30;1815470;78;21481;-68
2021/06/29 09:30:42;;;;;;;2.20;1.90;;;;;;;26.59;40.14;97958.70;1783136;80;20920;-70
2021/06/29 09:33:20;;;;;;;3.52;1.98;;;;;;;26.62;38.97;97975.78;1777997;78;21114;-69
2021/06/29 09:35:55;;;;;;;3.70;1.60;;;;;;;26.39;37.61;97972.69;1766604;79;21082;-73
2021/06/29 09:38:40;;;;;;;1.70;1.45;;;;;;;26.15;37.72;97963.88;1770763;80;21094;-65
2021/06/29 09:41:24;;;;;;;4.95;1.57;;;;;;;26.18;37.66;97961.72;1811972;77;20994;-65
2021/06/29 09:44:07;;;;;;;4.45;1.98;;;;;;;26.22;37.50;97955.63;1833730;78;21561;-67
2021/06/29 09:46:36;;;;;;;3.25;1.72;;;;;;;26.20;37.97;97956.03;1829648;78;21033;-67
2021/06/29 09:49:12;;;;;;;2.62;1.77;;;;;;;26.07;38.28;97968.57;1837486;78;21059;-62
2021/06/29 09:54:06;;;;;;;2.17;1.75;;;;;;;25.69;39.99;97963.84;1841140;76;23121;-65
2021/06/29 09:56:40;;;;;;;3.65;1.72;;;;;;;25.56;41.41;97961.25;1792596;78;20996;-66
2021/06/29 09:59:18;;;;;;;2.85;1.70;;;;;;;25.72;42.57;97951.48;1764525;80;22126;-64
2021/06/29 10:01:46;;;;;;;2.62;1.87;;;;;;;25.92;40.80;97953.84;1746774;82;21041;-67
2021/06/29 10:04:13;;;;;;;4.33;1.70;;;;;;;25.92;40.05;97951.11;1748073;82;21341;-69
2021/06/29 10:06:41;;;;;;;4.42;1.87;;;;;;;25.81;40.28;97953.86;1723702;82;20946;-67
2021/06/29 10:09:15;;;;;;;1.90;1.70;;;;;;;25.64;40.28;97960.89;1757035;78;20879;-67
2021/06/29 10:11:53;;;;;;;3.65;1.85;;;;;;;25.60;40.60;97955.97;1759953;79;21108;-68
2021/06/29 10:14:21;;;;;;;2.72;1.72;;;;;;;25.69;40.89;97946.80;1826262;77;20978;-66
2021/06/29 10:16:51;;;;;;;2.12;1.87;;;;;;;26.22;39.45;97939.95;1824800;78;20872;-66
2021/06/29 10:19:28;;;;;;;1.82;1.62;;;;;;;26.22;39.45;97939.95;1790266;80;20870;-65
2021/06/29 10:21:55;;;;;;;3.30;1.70;;;;;;;26.42;38.93;97946.61;1759852;80;20898;-69
2021/06/29 10:24:27;;;;;;;2.12;1.72;;;;;;;26.65;40.21;97943.41;1772343;81;21056;-66
2021/06/29 10:26:57;;;;;;;2.25;1.50;;;;;;;26.82;38.26;97948.69;1782093;79;20931;-66
2021/06/29 10:29:26;;;;;;;3.55;1.77;;;;;;;26.75;37.79;97950.87;1782374;80;20994;-69
2021/06/29 10:31:58;;;;;;;2.65;1.80;;;;;;;26.54;37.70;97948.15;1814787;79;21019;-65
2021/06/29 10:34:25;;;;;;;2.17;1.72;;;;;;;26.36;38.23;97950.91;1780839;80;20959;-67
2021/06/29 10:36:55;;;;;;;1.77;1.55;;;;;;;26.39;38.60;97941.11;1782452;80;21085;-68
2021/06/29 10:39:27;;;;;;;1.50;1.40;;;;;;;26.46;38.77;97937.77;1814509;79;21501;-69
2021/06/29 10:42:10;;;;;;;2.85;1.70;;;;;;;26.59;39.48;97933.98;1775277;80;20958;-65
2021/06/29 10:44:43;;;;;;;5.85;1.70;;;;;;;26.80;38.70;97940.84;1800271;79;20898;-68
2021/06/29 10:47:29;;;;;;;3.55;1.98;;;;;;;26.99;37.64;97936.23;1798685;79;21013;-67
2021/06/29 10:49:58;;;;;;;4.12;1.85;;;;;;;27.10;37.51;97926.58;1803513;79;21100;-65
2021/06/29 10:52:34;;;;;;;2.80;2.10;;;;;;;27.09;37.65;97934.03;1779974;78;20931;-66
2021/06/29 10:55:26;;;;;;;1.87;1.67;;;;;;;27.11;35.98;97933.05;1803428;79;21482;-65
2021/06/29 10:57:57;;;;;;;2.17;1.60;;;;;;;27.08;37.51;97931.11;1771515;81;21271;-67
2021/06/29 11:00:28;;;;;;;2.47;1.67;;;;;;;27.17;36.63;97927.13;1803561;79;20959;-67
2021/06/29 11:03:07;;;;;;;4.28;1.62;;;;;;;27.25;36.33;97921.80;1771883;81;21070;-66
2021/06/29 11:05:40;;;;;;;1.72;1.60;;;;;;;27.34;36.75;97915.26;1802522;79;21086;-68
2021/06/29 11:08:15;;;;;;;2.80;1.77;;;;;;;27.44;36.06;97914.45;1771159;81;20976;-67
2021/06/29 11:10:47;;;;;;;3.62;1.80;;;;;;;27.43;36.04;97912.87;1802695;79;20946;-68
2021/06/29 11:13:14;;;;;;;4.72;1.85;;;;;;;27.34;35.23;97916.63;1771275;81;21006;-67
2021/06/29 11:15:52;;;;;;;1.95;1.47;;;;;;;27.28;35.48;97907.22;1777701;78;21919;-67
2021/06/29 11:18:40;;;;;;;8.48;1.87;;;;;;;27.31;35.67;97914.67;1771538;81;20960;-67
2021/06/29 11:21:09;;;;;;;2.27;1.67;;;;;;;27.34;35.81;97904.26;1772734;79;21462;-69
2021/06/29 11:23:37;;;;;;;6.17;1.67;;;;;;;27.47;36.29;97897.13;1770735;81;20942;-67
2021/06/29 11:26:18;;;;;;;2.77;1.70;;;;;;;27.66;35.35;97900.13;1799554;78;21405;-69
2021/06/29 11:28:49;;;;;;;3.12;1.42;;;;;;;27.79;34.92;97900.44;1799239;79;21056;-69
2021/06/29 11:31:27;;;;;;;2.17;1.70;;;;;;;27.79;34.70;97897.69;1770741;81;21042;-69
2021/06/29 11:34:04;;;;;;;3.92;1.65;;;;;;;27.77;34.58;97886.27;1762575;81;20972;-67
2021/06/29 11:36:37;;;;;;;5.42;1.70;;;;;;;27.85;35.68;97887.80;1772534;81;20905;-72
2021/06/29 11:39:22;;;;;;;1.80;1.52;;;;;;;27.99;34.60;97882.75;1772636;80;20952;-70
2021/06/29 11:42:02;;;;;;;4.37;1.92;;;;;;;28.15;35.57;97874.17;1772379;80;21184;-69
2021/06/29 11:44:39;;;;;;;2.27;1.42;;;;;;;28.40;34.71;97881.59;1772408;80;20971;-70
2021/06/29 11:47:10;;;;;;;3.92;1.67;;;;;;;28.62;33.35;97874.50;1772045;80;21011;-69
2021/06/29 11:49:43;;;;;;;2.65;1.70;;;;;;;28.80;34.01;97864.03;1772641;80;21378;-71
2021/06/29 11:52:26;;;;;;;1.65;1.50;;;;;;;29.05;33.58;97855.61;1772714;79;21521;-72
2021/06/29 11:55:22;;;;;;;2.67;1.82;;;;;;;29.36;34.10;97859.14;1821526;78;21109;-70
2021/06/29 11:57:53;;;;;;;3.67;1.50;;;;;;;29.58;32.06;97852.70;1769188;81;20977;-71
2021/06/29 12:00:32;;;;;;;1.47;1.37;;;;;;;29.30;32.82;97843.48;1767647;81;21489;-70
2021/06/29 12:03:19;;;;;;;1.82;1.50;;;;;;;29.01;32.47;97848.59;1757707;81;21009;-69
2021/06/29 12:05:46;;;;;;;1.50;1.40;;;;;;;28.62;32.57;97841.44;1769396;81;20943;-69
2021/06/29 12:08:14;;;;;;;4.58;1.80;;;;;;;28.45;32.73;97841.18;1769483;80;21123;-68
2021/06/29 12:10:46;;;;;;;2.87;1.80;;;;;;;28.29;32.78;97842.94;1750205;82;21464;-75
2021/06/29 12:13:21;;;;;;;2.90;1.67;;;;;;;28.32;33.25;97833.87;1769242;80;20920;-69
2021/06/29 12:15:52;;;;;;;1.77;1.57;;;;;;;28.62;34.17;97838.06;1769499;81;21038;-67
2021/06/29 12:18:36;;;;;;;2.65;1.60;;;;;;;29.11;33.51;97840.77;1750073;82;20924;-67
2021/06/29 12:21:01;;;;;;;2.72;1.30;;;;;;;29.55;31.42;97840.52;1768817;81;21879;-67
2021/06/29 12:23:32;;;;;;;2.40;1.50;;;;;;;29.91;31.99;97841.33;1769235;81;20915;-70
2021/06/29 12:26:01;;;;;;;2.35;1.47;;;;;;;30.10;30.63;97833.69;1738671;81;20911;-69
2021/06/29 12:28:30;;;;;;;1.72;1.30;;;;;;;30.24;31.92;97836.18;1749568;82;21503;-68
2021/06/29 12:31:04;;;;;;;1.40;1.30;;;;;;;30.59;31.00;97837.48;1769792;80;20928;-69
2021/06/29 12:33:38;;;;;;;1.55;1.35;;;;;;;30.80;31.08;97823.22;1769541;81;21097;-69
2021/06/29 12:36:13;;;;;;;1.80;1.40;;;;;;;31.06;31.80;97824.45;1750029;82;21015;-66
2021/06/29 12:38:57;;;;;;;5.10;1.55;;;;;;;31.35;30.72;97828.70;1769117;80;20939;-68
2021/06/29 12:41:31;;;;;;;2.87;1.40;;;;;;;31.61;30.47;97835.22;1760504;80;21001;-64
2021/06/29 12:44:10;;;;;;;2.35;1.45;;;;;;;31.73;30.07;97823.45;1732698;81;20876;-65
2021/06/29 12:46:41;;;;;;;2.15;1.40;;;;;;;31.88;28.83;97818.33;1751885;82;21059;-67
2021/06/29 12:49:14;;;;;;;1.72;1.20;;;;;;;31.86;28.47;97827.09;1749216;80;20976;-65
2021/06/29 12:51:44;;;;;;;1.67;1.10;;;;;;;31.67;28.93;97821.83;1777445;80;21437;-66
2021/06/29 12:54:17;;;;;;;2.30;1.10;;;;;;;31.59;29.25;97819.05;1777331;80;20870;-65
2021/06/29 12:56:50;;;;;;;3.62;1.20;;;;;;;31.62;29.54;97820.96;1774624;79;20881;-64
2021/06/29 12:59:23;;;;;;;1.97;1.47;;;;;;;31.24;29.83;97812.17;1772085;81;21110;-64
2021/06/29 13:01:54;;;;;;;;;;;;;;;30.69;30.28;97813.76;1788663;79;20950;-65
2021/06/29 13:04:27;;;;;;;1.77;1.20;;;;;;;30.49;30.92;97810.84;1779786;79;20070;-64
2021/06/29 13:07:04;;;;;;;2.80;1.17;;;;;;;30.63;31.27;97814.09;1778015;79;21021;-66
2021/06/29 13:09:35;;;;;;;3.45;1.50;;;;;;;30.82;30.26;97800.85;1807846;79;21542;-65
2021/06/29 13:12:07;;;;;;;2.12;1.60;;;;;;;30.96;30.36;97814.39;1808959;78;21113;-65
2021/06/29 13:14:36;;;;;;;1.27;1.17;;;;;;;31.01;29.23;97804.21;1809474;78;20923;-65
2021/06/29 13:17:13;;;;;;;4.33;1.42;;;;;;;30.65;29.67;97815.83;1810081;79;20968;-65
2021/06/29 13:19:39;;;;;;;2.47;1.30;;;;;;;30.10;30.22;97803.31;1810105;78;20908;-65
2021/06/29 13:22:11;;;;;;;1.42;1.20;;;;;;;29.93;30.96;97798.89;1810356;79;20908;-65
2021/06/29 13:24:50;;;;;;;2.00;1.20;;;;;;;30.05;31.28;97793.53;1812912;78;21098;-67
2021/06/29 13:27:29;;;;;;;3.40;1.20;;;;;;;30.42;31.18;97795.19;1809701;79;20950;-64
2021/06/29 13:30:11;;;;;;;1.80;1.27;;;;;;;30.87;30.82;97792.05;1809499;79;20829;-65
2021/06/29 13:32:41;;;;;;;3.47;1.17;;;;;;;31.28;30.34;97792.14;1809039;78;21370;-65
2021/06/29 13:35:11;;;;;;;2.60;1.47;;;;;;;31.64;30.34;97794.22;1809419;78;21054;-67
2021/06/29 13:37:41;;;;;;;1.72;1.10;;;;;;;31.88;28.69;97789.26;1805672;78;21060;-65
2021/06/29 13:40:29;;;;;;;1.20;1.10;;;;;;;31.64;28.64;97787.30;1808403;79;20965;-66
2021/06/29 13:43:20;;;;;;;1.10;1.00;;;;;;;31.21;28.36;97795.08;1808052;78;20923;-67
2021/06/29 13:45:54;;;;;;;1.40;1.00;;;;;;;30.90;28.25;97790.45;1806825;79;20927;-67
2021/06/29 13:48:30;;;;;;;3.20;1.10;;;;;;;30.96;28.38;97788.72;1809516;79;20919;-67
2021/06/29 13:50:58;;;;;;;2.08;1.00;;;;;;;31.14;28.56;97787.70;1810002;79;21114;-66
2021/06/29 13:53:32;;;;;;;5.37;1.20;;;;;;;31.23;28.67;97792.66;1810002;79;20994;-67
2021/06/29 13:56:05;;;;;;;2.25;1.30;;;;;;;31.01;29.29;97793.15;1808772;78;20904;-67
2021/06/29 13:58:34;;;;;;;2.15;1.50;;;;;;;30.51;30.09;97795.40;1756433;80;20876;-68
2021/06/29 14:01:03;;;;;;;1.45;1.20;;;;;;;29.95;30.31;97788.98;1753809;80;20875;-66
2021/06/29 14:03:32;;;;;;;1.95;1.30;;;;;;;29.47;31.12;97788.61;1782299;79;21660;-66
2021/06/29 14:06:13;;;;;;;4.50;1.55;;;;;;;29.14;31.98;97779.25;1782203;79;20975;-67
2021/06/29 15:16:41;;;;;;;4.45;1.30;;;;;;;29.45;31.92;97735.24;1887831;76;22692;-65
2021/06/29 15:19:08;;;;;;;1.47;1.10;;;;;;;29.23;32.57;97735.41;1856003;77;20876;-67
2021/06/29 15:21:37;;;;;;;3.45;1.27;;;;;;;29.42;32.73;97734.70;1855730;77;20943;-66
2021/06/29 15:24:05;;;;;;;2.25;1.32;;;;;;;29.77;32.86;97729.95;1855601;77;20915;-66
2021/06/29 15:26:32;;;;;;;5.55;1.37;;;;;;;30.27;31.54;97743.56;1855955;77;20906;-67
2021/06/29 15:28:58;;;;;;;8.13;1.62;;;;;;;30.80;31.36;97743.05;1855865;77;20915;-68
2021/06/29 15:31:26;;;;;;;3.98;1.32;;;;;;;31.35;31.04;97742.17;1856009;77;20931;-66
2021/06/29 15:33:52;;;;;;;3.42;1.45;;;;;;;31.79;30.68;97744.20;1855889;77;21067;-68
2021/06/29 15:36:19;;;;;;;3.08;1.10;;;;;;;32.01;29.69;97749.34;1855801;77;20872;-67
2021/06/29 15:38:45;;;;;;;7.17;1.60;;;;;;;31.92;28.83;97747.01;1856171;77;20852;-68
2021/06/29 15:41:12;;;;;;;4.33;1.20;;;;;;;31.69;28.98;97751.58;1855849;77;20911;-67
2021/06/29 15:43:39;;;;;;;2.67;1.00;;;;;;;31.49;29.59;97759.83;1855853;77;20840;-67
2021/06/29 15:46:05;;;;;;;2.72;1.30;;;;;;;31.23;30.39;97759.45;1856253;77;21446;-66
2021/06/29 15:48:32;;;;;;;3.60;1.30;;;;;;;30.96;30.54;97763.23;1855801;77;20868;-66
2021/06/29 15:50:59;;;;;;;2.50;1.22;;;;;;;30.68;30.82;97754.17;1856065;77;21336;-66
2021/06/29 15:53:28;;;;;;;5.42;1.30;;;;;;;30.34;32.00;97749.56;1855843;77;20950;-67
2021/06/29 15:55:56;;;;;;;2.37;1.10;;;;;;;30.01;32.53;97750.00;1856038;77;21520;-68
2021/06/29 15:58:23;;;;;;;4.58;1.27;;;;;;;29.74;33.29;97752.86;1855841;77;21196;-68
2021/06/29 16:00:51;;;;;;;3.40;1.40;;;;;;;29.52;33.58;97750.30;1855787;77;20868;-67
2021/06/29 16:03:18;;;;;;;2.67;1.30;;;;;;;29.29;34.02;97747.54;1856121;77;20884;-68
2021/06/29 16:05:45;;;;;;;4.37;1.40;;;;;;;29.11;34.85;97748.41;1856017;77;21469;-68
2021/06/29 16:08:12;;;;;;;1.77;1.22;;;;;;;28.93;34.59;97756.93;1855858;77;20856;-68
2021/06/29 16:10:40;;;;;;;7.47;1.70;;;;;;;28.74;34.41;97758.19;1855676;77;21179;-69
2021/06/29 16:13:06;;;;;;;9.20;1.50;;;;;;;28.57;34.87;97755.08;1856022;77;21422;-68
2021/06/29 16:15:35;;;;;;;6.00;1.40;;;;;;;28.44;35.45;97762.52;1854573;77;20955;-66
2021/06/29 16:18:03;;;;;;;2.67;1.50;;;;;;;28.41;35.94;97755.66;1853417;77;20878;-66
2021/06/29 16:20:30;;;;;;;3.17;1.75;;;;;;;28.36;35.72;97752.77;1853281;77;20875;-66
2021/06/29 16:22:57;;;;;;;2.47;1.60;;;;;;;28.31;35.69;97749.09;1853444;77;21068;-66
2021/06/29 16:25:23;;;;;;;2.17;1.25;;;;;;;28.20;35.71;97744.91;1853432;77;21021;-66
2021/06/29 16:27:50;;;;;;;1.52;1.40;;;;;;;28.05;35.78;97747.04;1853294;77;21387;-68
2021/06/29 16:30:18;;;;;;;2.10;1.30;;;;;;;27.84;36.40;97745.11;1852812;77;20962;-69
2021/06/29 16:32:45;;;;;;;2.60;1.20;;;;;;;27.70;36.74;97747.39;1853026;77;21486;-66
2021/06/29 16:35:13;;;;;;;2.42;1.60;;;;;;;27.55;36.67;97740.48;1852785;77;21469;-66
2021/06/29 16:37:40;;;;;;;1.92;1.35;;;;;;;27.47;36.75;97740.35;1852758;77;20820;-66
2021/06/29 16:40:09;;;;;;;3.12;1.42;;;;;;;27.38;36.84;97745.55;1853060;77;21376;-66
2021/06/29 16:42:35;;;;;;;2.75;1.30;;;;;;;27.22;37.34;97733.68;1852941;77;20963;-66
2021/06/29 16:45:07;;;;;;;3.33;1.52;;;;;;;27.10;37.69;97738.29;1853053;77;21516;-66
2021/06/29 16:47:33;;;;;;;4.22;1.50;;;;;;;26.98;37.90;97734.06;1853125;77;21077;-66
2021/06/29 16:50:01;;;;;;;2.30;1.42;;;;;;;26.86;38.13;97738.66;1852723;77;20880;-67
2021/06/29 16:52:28;;;;;;;2.77;1.45;;;;;;;26.73;38.12;97734.80;1852801;77;20928;-66
2021/06/29 16:55:01;;;;;;;2.33;1.50;;;;;;;26.59;38.25;97738.98;1852754;77;20916;-65
2021/06/29 16:57:23;;;;;;;1.95;1.40;;;;;;;26.45;38.55;97736.31;1851931;77;20971;-66
2021/06/29 16:59:50;;;;;;;3.35;1.55;;;;;;;26.35;38.62;97739.91;1852863;77;21421;-65
2021/06/29 17:02:17;;;;;;;2.00;1.40;;;;;;;26.23;39.10;97738.98;1852743;77;20908;-64
2021/06/29 17:04:44;;;;;;;4.53;1.55;;;;;;;26.14;39.48;97735.30;1852988;77;21007;-67
2021/06/29 17:07:10;;;;;;;2.85;1.65;;;;;;;26.10;39.71;97739.19;1852729;77;20887;-66
2021/06/29 17:09:37;;;;;;;3.55;1.90;;;;;;;26.05;39.63;97743.73;1852780;77;20904;-66
2021/06/29 17:12:05;;;;;;;2.85;1.60;;;;;;;26.04;39.79;97749.02;1852872;77;21101;-66
